sensor_id;sensor_type;location;lat;lon;timestamp;P1;durP1;ratioP1;P2;durP2;ratioP2
57317;SDS011;43157;50.982;18.132;2022-10-16T00:02:18;20.60;;;9.10;;
57317;SDS011;43157;50.982;18.132;2022-10-16T00:04:43;21.30;;;8.70;;
57317;SDS011;43157;50.982;18.132;2022-10-16T00:07:09;18.60;;;8.80;;
57317;SDS011;43157;50.982;18.132;2022-10-16T00:09:34;17.50;;;7.70;;
57317;SDS011;43157;50.982;18.132;2022-10-16T00:12:00;16.30;;;7.20;;
57317;SDS011;43157;50.982;18.132;2022-10-16T00:14:25;17.00;;;7.90;;
57317;SDS011;43157;50.982;18.132;2022-10-16T00:16:51;18.10;;;7.40;;
57317;SDS011;43157;50.982;18.132;2022-10-16T00:19:16;17.10;;;7.40;;
57317;SDS011;43157;50.982;18.132;2022-10-16T00:21:42;15.90;;;7.40;;
57317;SDS011;43157;50.982;18.132;2022-10-16T00:24:08;18.90;;;8.10;;
57317;SDS011;43157;50.982;18.132;2022-10-16T00:26:35;20.10;;;9.30;;
57317;SDS011;43157;50.982;18.132;2022-10-16T00:29:02;19.50;;;8.20;;
57317;SDS011;43157;50.982;18.132;2022-10-16T00:31:28;22.10;;;9.40;;
57317;SDS011;43157;50.982;18.132;2022-10-16T00:33:53;21.00;;;9.80;;
57317;SDS011;43157;50.982;18.132;2022-10-16T00:36:20;19.10;;;9.00;;
57317;SDS011;43157;50.982;18.132;2022-10-16T00:38:49;20.30;;;9.30;;
57317;SDS011;43157;50.982;18.132;2022-10-16T00:41:20;21.30;;;9.60;;
57317;SDS011;43157;50.982;18.132;2022-10-16T00:43:47;20.90;;;10.10;;
57317;SDS011;43157;50.982;18.132;2022-10-16T00:46:19;24.30;;;10.20;;
57317;SDS011;43157;50.982;18.132;2022-10-16T00:49:19;24.70;;;11.40;;
57317;SDS011;43157;50.982;18.132;2022-10-16T00:51:40;21.70;;;9.60;;
57317;SDS011;43157;50.982;18.132;2022-10-16T00:54:12;24.20;;;11.70;;
57317;SDS011;43157;50.982;18.132;2022-10-16T00:56:40;22.50;;;10.10;;
57317;SDS011;43157;50.982;18.132;2022-10-16T00:59:07;24.60;;;10.30;;
57317;SDS011;43157;50.982;18.132;2022-10-16T01:01:37;23.80;;;10.80;;
57317;SDS011;43157;50.982;18.132;2022-10-16T01:04:03;22.90;;;11.00;;
57317;SDS011;43157;50.982;18.132;2022-10-16T01:06:35;25.60;;;11.00;;
57317;SDS011;43157;50.982;18.132;2022-10-16T01:09:13;24.20;;;10.80;;
57317;SDS011;43157;50.982;18.132;2022-10-16T01:12:19;24.20;;;11.60;;
57317;SDS011;43157;50.982;18.132;2022-10-16T01:19:54;26.80;;;12.20;;
57317;SDS011;43157;50.982;18.132;2022-10-16T01:22:22;27.40;;;13.70;;
57317;SDS011;43157;50.982;18.132;2022-10-16T01:24:51;27.50;;;12.90;;
57317;SDS011;43157;50.982;18.132;2022-10-16T01:30:02;25.50;;;12.40;;
57317;SDS011;43157;50.982;18.132;2022-10-16T01:32:55;28.90;;;13.30;;
57317;SDS011;43157;50.982;18.132;2022-10-16T01:35:25;26.20;;;12.20;;
57317;SDS011;43157;50.982;18.132;2022-10-16T01:40:24;24.40;;;13.00;;
57317;SDS011;43157;50.982;18.132;2022-10-16T01:43:35;24.20;;;12.80;;
57317;SDS011;43157;50.982;18.132;2022-10-16T01:45:44;30.40;;;14.50;;
57317;SDS011;43157;50.982;18.132;2022-10-16T01:48:17;27.50;;;13.30;;
57317;SDS011;43157;50.982;18.132;2022-10-16T01:50:44;27.50;;;14.40;;
57317;SDS011;43157;50.982;18.132;2022-10-16T01:53:21;29.40;;;13.60;;
57317;SDS011;43157;50.982;18.132;2022-10-16T01:55:47;31.60;;;12.90;;
57317;SDS011;43157;50.982;18.132;2022-10-16T01:58:14;27.50;;;14.40;;
57317;SDS011;43157;50.982;18.132;2022-10-16T02:00:40;29.30;;;14.80;;
57317;SDS011;43157;50.982;18.132;2022-10-16T02:03:08;28.10;;;13.40;;
57317;SDS011;43157;50.982;18.132;2022-10-16T02:05:39;27.70;;;13.60;;
57317;SDS011;43157;50.982;18.132;2022-10-16T02:08:08;26.90;;;14.70;;
57317;SDS011;43157;50.982;18.132;2022-10-16T02:10:34;32.10;;;15.00;;
57317;SDS011;43157;50.982;18.132;2022-10-16T02:13:03;28.00;;;13.90;;
57317;SDS011;43157;50.982;18.132;2022-10-16T02:15:36;27.20;;;14.40;;
57317;SDS011;43157;50.982;18.132;2022-10-16T02:18:03;26.70;;;13.50;;
57317;SDS011;43157;50.982;18.132;2022-10-16T02:20:31;26.50;;;14.80;;
57317;SDS011;43157;50.982;18.132;2022-10-16T02:22:59;27.40;;;13.20;;
57317;SDS011;43157;50.982;18.132;2022-10-16T02:25:36;28.00;;;14.20;;
57317;SDS011;43157;50.982;18.132;2022-10-16T02:28:07;28.30;;;13.60;;
57317;SDS011;43157;50.982;18.132;2022-10-16T02:30:36;30.30;;;13.40;;
57317;SDS011;43157;50.982;18.132;2022-10-16T02:33:06;26.40;;;13.30;;
57317;SDS011;43157;50.982;18.132;2022-10-16T02:35:33;26.80;;;14.70;;
57317;SDS011;43157;50.982;18.132;2022-10-16T02:37:59;26.30;;;12.80;;
57317;SDS011;43157;50.982;18.132;2022-10-16T02:40:26;29.00;;;13.70;;
57317;SDS011;43157;50.982;18.132;2022-10-16T02:42:52;29.40;;;13.40;;
57317;SDS011;43157;50.982;18.132;2022-10-16T02:45:19;27.50;;;13.10;;
57317;SDS011;43157;50.982;18.132;2022-10-16T02:47:46;25.30;;;12.70;;
57317;SDS011;43157;50.982;18.132;2022-10-16T02:50:12;25.90;;;12.90;;
57317;SDS011;43157;50.982;18.132;2022-10-16T02:52:37;24.80;;;12.80;;
57317;SDS011;43157;50.982;18.132;2022-10-16T02:55:03;22.30;;;11.30;;
57317;SDS011;43157;50.982;18.132;2022-10-16T02:57:29;25.60;;;13.20;;
57317;SDS011;43157;50.982;18.132;2022-10-16T02:59:55;24.20;;;13.20;;
57317;SDS011;43157;50.982;18.132;2022-10-16T03:02:20;26.10;;;13.70;;
57317;SDS011;43157;50.982;18.132;2022-10-16T03:04:46;25.00;;;13.50;;
57317;SDS011;43157;50.982;18.132;2022-10-16T03:07:12;26.00;;;12.50;;
57317;SDS011;43157;50.982;18.132;2022-10-16T03:09:38;26.00;;;12.40;;
57317;SDS011;43157;50.982;18.132;2022-10-16T03:12:04;25.80;;;13.10;;
57317;SDS011;43157;50.982;18.132;2022-10-16T03:14:29;27.10;;;12.80;;
57317;SDS011;43157;50.982;18.132;2022-10-16T03:16:55;24.40;;;11.80;;
57317;SDS011;43157;50.982;18.132;2022-10-16T03:19:20;24.20;;;11.60;;
57317;SDS011;43157;50.982;18.132;2022-10-16T03:21:46;22.60;;;10.90;;
57317;SDS011;43157;50.982;18.132;2022-10-16T03:24:11;25.70;;;12.10;;
57317;SDS011;43157;50.982;18.132;2022-10-16T03:26:37;25.00;;;12.20;;
57317;SDS011;43157;50.982;18.132;2022-10-16T03:29:02;25.20;;;11.00;;
57317;SDS011;43157;50.982;18.132;2022-10-16T03:31:29;22.40;;;11.70;;
57317;SDS011;43157;50.982;18.132;2022-10-16T03:33:55;24.20;;;12.30;;
57317;SDS011;43157;50.982;18.132;2022-10-16T03:36:20;23.80;;;11.70;;
57317;SDS011;43157;50.982;18.132;2022-10-16T03:38:46;24.60;;;11.10;;
57317;SDS011;43157;50.982;18.132;2022-10-16T03:41:11;21.30;;;10.60;;
57317;SDS011;43157;50.982;18.132;2022-10-16T03:43:37;20.50;;;10.20;;
57317;SDS011;43157;50.982;18.132;2022-10-16T03:46:03;20.70;;;10.10;;
57317;SDS011;43157;50.982;18.132;2022-10-16T03:48:29;21.60;;;10.20;;
57317;SDS011;43157;50.982;18.132;2022-10-16T03:50:55;20.90;;;10.70;;
57317;SDS011;43157;50.982;18.132;2022-10-16T03:53:20;21.60;;;10.90;;
57317;SDS011;43157;50.982;18.132;2022-10-16T03:55:46;22.80;;;10.30;;
57317;SDS011;43157;50.982;18.132;2022-10-16T03:58:12;22.60;;;10.90;;
57317;SDS011;43157;50.982;18.132;2022-10-16T04:00:44;21.00;;;10.70;;
57317;SDS011;43157;50.982;18.132;2022-10-16T04:03:10;22.00;;;10.90;;
57317;SDS011;43157;50.982;18.132;2022-10-16T04:05:36;20.70;;;10.80;;
57317;SDS011;43157;50.982;18.132;2022-10-16T04:08:02;25.80;;;11.60;;
57317;SDS011;43157;50.982;18.132;2022-10-16T04:10:28;19.80;;;10.60;;
57317;SDS011;43157;50.982;18.132;2022-10-16T04:12:54;21.80;;;11.30;;
57317;SDS011;43157;50.982;18.132;2022-10-16T04:15:21;23.10;;;11.30;;
57317;SDS011;43157;50.982;18.132;2022-10-16T04:17:47;22.30;;;12.20;;
57317;SDS011;43157;50.982;18.132;2022-10-16T04:20:14;22.30;;;11.30;;
57317;SDS011;43157;50.982;18.132;2022-10-16T04:22:39;22.40;;;11.90;;
57317;SDS011;43157;50.982;18.132;2022-10-16T04:25:05;22.30;;;11.10;;
57317;SDS011;43157;50.982;18.132;2022-10-16T04:27:31;21.50;;;11.50;;
57317;SDS011;43157;50.982;18.132;2022-10-16T04:29:57;22.40;;;12.50;;
57317;SDS011;43157;50.982;18.132;2022-10-16T04:32:23;24.40;;;11.70;;
57317;SDS011;43157;50.982;18.132;2022-10-16T04:34:49;21.80;;;11.90;;
57317;SDS011;43157;50.982;18.132;2022-10-16T04:37:14;23.20;;;12.20;;
57317;SDS011;43157;50.982;18.132;2022-10-16T04:39:40;24.10;;;12.60;;
57317;SDS011;43157;50.982;18.132;2022-10-16T04:42:05;24.40;;;12.40;;
57317;SDS011;43157;50.982;18.132;2022-10-16T04:44:31;23.50;;;11.60;;
57317;SDS011;43157;50.982;18.132;2022-10-16T04:46:56;26.10;;;13.50;;
57317;SDS011;43157;50.982;18.132;2022-10-16T04:49:21;26.60;;;13.80;;
57317;SDS011;43157;50.982;18.132;2022-10-16T04:51:47;25.10;;;13.30;;
57317;SDS011;43157;50.982;18.132;2022-10-16T04:54:13;27.00;;;13.40;;
57317;SDS011;43157;50.982;18.132;2022-10-16T04:56:38;25.30;;;11.60;;
57317;SDS011;43157;50.982;18.132;2022-10-16T04:59:14;28.50;;;12.70;;
57317;SDS011;43157;50.982;18.132;2022-10-16T05:01:40;26.10;;;13.40;;
57317;SDS011;43157;50.982;18.132;2022-10-16T05:04:06;23.60;;;12.80;;
57317;SDS011;43157;50.982;18.132;2022-10-16T05:06:32;26.60;;;12.80;;
57317;SDS011;43157;50.982;18.132;2022-10-16T05:08:57;25.10;;;13.10;;
57317;SDS011;43157;50.982;18.132;2022-10-16T05:11:23;25.10;;;12.90;;
57317;SDS011;43157;50.982;18.132;2022-10-16T05:13:49;25.80;;;13.60;;
57317;SDS011;43157;50.982;18.132;2022-10-16T05:16:14;24.20;;;12.10;;
57317;SDS011;43157;50.982;18.132;2022-10-16T05:18:40;26.30;;;13.10;;
57317;SDS011;43157;50.982;18.132;2022-10-16T05:21:05;31.40;;;13.70;;
57317;SDS011;43157;50.982;18.132;2022-10-16T05:23:31;25.40;;;13.30;;
57317;SDS011;43157;50.982;18.132;2022-10-16T05:25:57;25.40;;;13.40;;
57317;SDS011;43157;50.982;18.132;2022-10-16T05:28:28;26.90;;;13.10;;
57317;SDS011;43157;50.982;18.132;2022-10-16T05:30:55;25.90;;;13.90;;
57317;SDS011;43157;50.982;18.132;2022-10-16T05:33:22;24.90;;;12.30;;
57317;SDS011;43157;50.982;18.132;2022-10-16T05:35:50;28.90;;;14.80;;
57317;SDS011;43157;50.982;18.132;2022-10-16T05:38:16;29.20;;;14.40;;
57317;SDS011;43157;50.982;18.132;2022-10-16T05:40:42;25.70;;;13.30;;
57317;SDS011;43157;50.982;18.132;2022-10-16T05:43:08;31.00;;;13.60;;
57317;SDS011;43157;50.982;18.132;2022-10-16T05:45:34;30.80;;;16.70;;
57317;SDS011;43157;50.982;18.132;2022-10-16T05:47:59;30.50;;;14.40;;
57317;SDS011;43157;50.982;18.132;2022-10-16T05:50:25;30.90;;;15.60;;
57317;SDS011;43157;50.982;18.132;2022-10-16T05:52:52;28.50;;;14.60;;
57317;SDS011;43157;50.982;18.132;2022-10-16T05:55:18;24.60;;;14.00;;
57317;SDS011;43157;50.982;18.132;2022-10-16T05:57:43;27.40;;;15.00;;
57317;SDS011;43157;50.982;18.132;2022-10-16T06:00:09;28.20;;;14.30;;
57317;SDS011;43157;50.982;18.132;2022-10-16T06:02:35;30.50;;;15.50;;
57317;SDS011;43157;50.982;18.132;2022-10-16T06:05:01;33.20;;;16.10;;
57317;SDS011;43157;50.982;18.132;2022-10-16T06:07:27;28.60;;;14.90;;
57317;SDS011;43157;50.982;18.132;2022-10-16T06:09:52;26.30;;;15.00;;
57317;SDS011;43157;50.982;18.132;2022-10-16T06:12:18;28.90;;;15.20;;
57317;SDS011;43157;50.982;18.132;2022-10-16T06:14:45;27.60;;;15.40;;
57317;SDS011;43157;50.982;18.132;2022-10-16T06:17:12;30.70;;;14.80;;
57317;SDS011;43157;50.982;18.132;2022-10-16T06:19:39;27.00;;;13.40;;
57317;SDS011;43157;50.982;18.132;2022-10-16T06:22:05;27.00;;;14.30;;
57317;SDS011;43157;50.982;18.132;2022-10-16T06:24:30;24.00;;;13.30;;
57317;SDS011;43157;50.982;18.132;2022-10-16T06:26:56;27.60;;;15.70;;
57317;SDS011;43157;50.982;18.132;2022-10-16T06:29:21;29.40;;;13.50;;
57317;SDS011;43157;50.982;18.132;2022-10-16T06:31:47;27.10;;;14.20;;
57317;SDS011;43157;50.982;18.132;2022-10-16T06:34:12;28.10;;;14.50;;
57317;SDS011;43157;50.982;18.132;2022-10-16T06:36:38;25.10;;;14.60;;
57317;SDS011;43157;50.982;18.132;2022-10-16T06:39:04;28.30;;;15.30;;
57317;SDS011;43157;50.982;18.132;2022-10-16T06:41:32;27.60;;;14.50;;
57317;SDS011;43157;50.982;18.132;2022-10-16T06:43:58;27.00;;;13.00;;
57317;SDS011;43157;50.982;18.132;2022-10-16T06:46:25;27.70;;;14.70;;
57317;SDS011;43157;50.982;18.132;2022-10-16T06:48:52;29.40;;;15.00;;
57317;SDS011;43157;50.982;18.132;2022-10-16T06:51:19;27.50;;;14.00;;
57317;SDS011;43157;50.982;18.132;2022-10-16T06:53:51;29.10;;;15.00;;
57317;SDS011;43157;50.982;18.132;2022-10-16T06:56:19;29.60;;;15.00;;
57317;SDS011;43157;50.982;18.132;2022-10-16T06:58:49;27.80;;;14.90;;
57317;SDS011;43157;50.982;18.132;2022-10-16T07:01:15;26.70;;;14.30;;
57317;SDS011;43157;50.982;18.132;2022-10-16T07:03:42;29.50;;;15.60;;
57317;SDS011;43157;50.982;18.132;2022-10-16T07:06:09;27.70;;;14.80;;
57317;SDS011;43157;50.982;18.132;2022-10-16T07:08:40;29.30;;;14.70;;
57317;SDS011;43157;50.982;18.132;2022-10-16T07:11:08;25.10;;;14.50;;
57317;SDS011;43157;50.982;18.132;2022-10-16T07:13:42;26.40;;;14.20;;
57317;SDS011;43157;50.982;18.132;2022-10-16T07:16:09;31.70;;;15.90;;
57317;SDS011;43157;50.982;18.132;2022-10-16T07:18:36;29.00;;;15.00;;
57317;SDS011;43157;50.982;18.132;2022-10-16T07:23:31;27.20;;;14.10;;
57317;SDS011;43157;50.982;18.132;2022-10-16T07:25:56;25.30;;;13.40;;
57317;SDS011;43157;50.982;18.132;2022-10-16T07:28:22;27.80;;;14.30;;
57317;SDS011;43157;50.982;18.132;2022-10-16T07:30:48;25.50;;;13.70;;
57317;SDS011;43157;50.982;18.132;2022-10-16T07:33:13;27.20;;;13.10;;
57317;SDS011;43157;50.982;18.132;2022-10-16T07:35:47;33.40;;;14.80;;
57317;SDS011;43157;50.982;18.132;2022-10-16T07:38:14;32.50;;;15.40;;
57317;SDS011;43157;50.982;18.132;2022-10-16T07:40:39;26.80;;;15.30;;
57317;SDS011;43157;50.982;18.132;2022-10-16T07:43:05;25.20;;;13.80;;
57317;SDS011;43157;50.982;18.132;2022-10-16T07:45:30;28.30;;;14.50;;
57317;SDS011;43157;50.982;18.132;2022-10-16T07:47:57;28.40;;;14.10;;
57317;SDS011;43157;50.982;18.132;2022-10-16T07:50:22;24.20;;;14.00;;
57317;SDS011;43157;50.982;18.132;2022-10-16T07:52:48;23.20;;;12.50;;
57317;SDS011;43157;50.982;18.132;2022-10-16T07:55:13;24.80;;;13.10;;
57317;SDS011;43157;50.982;18.132;2022-10-16T07:57:39;27.10;;;13.30;;
57317;SDS011;43157;50.982;18.132;2022-10-16T08:00:05;24.20;;;12.80;;
57317;SDS011;43157;50.982;18.132;2022-10-16T08:02:31;25.80;;;13.70;;
57317;SDS011;43157;50.982;18.132;2022-10-16T08:04:57;22.40;;;12.80;;
57317;SDS011;43157;50.982;18.132;2022-10-16T08:07:23;23.20;;;12.50;;
57317;SDS011;43157;50.982;18.132;2022-10-16T08:09:49;21.50;;;11.70;;
57317;SDS011;43157;50.982;18.132;2022-10-16T08:12:17;24.10;;;12.40;;
57317;SDS011;43157;50.982;18.132;2022-10-16T08:14:42;25.40;;;11.60;;
57317;SDS011;43157;50.982;18.132;2022-10-16T08:17:08;24.10;;;12.80;;
57317;SDS011;43157;50.982;18.132;2022-10-16T08:19:34;23.20;;;11.00;;
57317;SDS011;43157;50.982;18.132;2022-10-16T08:22:00;20.40;;;11.20;;
57317;SDS011;43157;50.982;18.132;2022-10-16T08:24:26;23.10;;;11.20;;
57317;SDS011;43157;50.982;18.132;2022-10-16T08:26:55;21.10;;;10.60;;
57317;SDS011;43157;50.982;18.132;2022-10-16T08:29:20;21.20;;;11.40;;
57317;SDS011;43157;50.982;18.132;2022-10-16T08:31:46;22.30;;;11.40;;
57317;SDS011;43157;50.982;18.132;2022-10-16T08:34:11;21.60;;;10.40;;
57317;SDS011;43157;50.982;18.132;2022-10-16T08:36:39;21.40;;;11.40;;
57317;SDS011;43157;50.982;18.132;2022-10-16T08:39:05;21.20;;;10.30;;
57317;SDS011;43157;50.982;18.132;2022-10-16T08:47:18;19.60;;;9.30;;
57317;SDS011;43157;50.982;18.132;2022-10-16T08:49:56;22.90;;;11.10;;
57317;SDS011;43157;50.982;18.132;2022-10-16T08:52:24;19.90;;;10.10;;
57317;SDS011;43157;50.982;18.132;2022-10-16T08:54:51;20.00;;;10.40;;
57317;SDS011;43157;50.982;18.132;2022-10-16T08:57:20;20.70;;;10.60;;
57317;SDS011;43157;50.982;18.132;2022-10-16T08:59:47;22.10;;;10.90;;
57317;SDS011;43157;50.982;18.132;2022-10-16T09:13:14;18.80;;;9.30;;
57317;SDS011;43157;50.982;18.132;2022-10-16T09:15:48;17.90;;;9.10;;
57317;SDS011;43157;50.982;18.132;2022-10-16T09:21:20;21.10;;;8.90;;
57317;SDS011;43157;50.982;18.132;2022-10-16T09:23:48;19.30;;;10.40;;
57317;SDS011;43157;50.982;18.132;2022-10-16T09:26:16;17.80;;;10.00;;
57317;SDS011;43157;50.982;18.132;2022-10-16T09:28:42;19.00;;;9.80;;
57317;SDS011;43157;50.982;18.132;2022-10-16T09:31:18;19.40;;;9.70;;
57317;SDS011;43157;50.982;18.132;2022-10-16T09:33:47;21.50;;;10.10;;
57317;SDS011;43157;50.982;18.132;2022-10-16T09:36:15;23.10;;;9.30;;
57317;SDS011;43157;50.982;18.132;2022-10-16T09:38:42;18.50;;;9.20;;
57317;SDS011;43157;50.982;18.132;2022-10-16T09:41:20;19.60;;;9.70;;
57317;SDS011;43157;50.982;18.132;2022-10-16T09:49:18;23.20;;;10.40;;
57317;SDS011;43157;50.982;18.132;2022-10-16T09:51:49;22.60;;;10.60;;
57317;SDS011;43157;50.982;18.132;2022-10-16T09:56:42;18.70;;;9.90;;
57317;SDS011;43157;50.982;18.132;2022-10-16T09:59:12;19.40;;;10.00;;
57317;SDS011;43157;50.982;18.132;2022-10-16T10:04:06;17.80;;;9.50;;
57317;SDS011;43157;50.982;18.132;2022-10-16T10:06:33;18.40;;;9.50;;
57317;SDS011;43157;50.982;18.132;2022-10-16T10:11:44;17.00;;;9.70;;
57317;SDS011;43157;50.982;18.132;2022-10-16T10:14:30;16.80;;;8.20;;
57317;SDS011;43157;50.982;18.132;2022-10-16T10:19:37;17.60;;;8.90;;
57317;SDS011;43157;50.982;18.132;2022-10-16T10:33:45;25.10;;;13.10;;
57317;SDS011;43157;50.982;18.132;2022-10-16T10:46:48;18.00;;;9.00;;
57317;SDS011;43157;50.982;18.132;2022-10-16T10:49:19;15.50;;;7.30;;
57317;SDS011;43157;50.982;18.132;2022-10-16T10:52:12;15.10;;;7.00;;
57317;SDS011;43157;50.982;18.132;2022-10-16T10:57:35;18.00;;;8.90;;
57317;SDS011;43157;50.982;18.132;2022-10-16T11:00:19;16.20;;;7.60;;
57317;SDS011;43157;50.982;18.132;2022-10-16T11:02:57;19.90;;;7.40;;
57317;SDS011;43157;50.982;18.132;2022-10-16T11:05:38;15.50;;;7.50;;
57317;SDS011;43157;50.982;18.132;2022-10-16T11:10:57;16.90;;;7.60;;
57317;SDS011;43157;50.982;18.132;2022-10-16T11:13:31;15.20;;;7.70;;
57317;SDS011;43157;50.982;18.132;2022-10-16T11:16:02;16.10;;;8.20;;
57317;SDS011;43157;50.982;18.132;2022-10-16T11:22:03;15.70;;;8.70;;
57317;SDS011;43157;50.982;18.132;2022-10-16T11:24:59;14.70;;;7.00;;
57317;SDS011;43157;50.982;18.132;2022-10-16T11:27:33;15.20;;;7.50;;
57317;SDS011;43157;50.982;18.132;2022-10-16T11:30:01;15.90;;;7.70;;
57317;SDS011;43157;50.982;18.132;2022-10-16T11:32:30;15.70;;;8.50;;
57317;SDS011;43157;50.982;18.132;2022-10-16T11:35:00;15.90;;;7.90;;
57317;SDS011;43157;50.982;18.132;2022-10-16T11:37:34;19.10;;;8.30;;
57317;SDS011;43157;50.982;18.132;2022-10-16T11:40:05;16.80;;;8.20;;
57317;SDS011;43157;50.982;18.132;2022-10-16T11:42:44;17.30;;;8.50;;
57317;SDS011;43157;50.982;18.132;2022-10-16T11:56:39;15.40;;;7.90;;
57317;SDS011;43157;50.982;18.132;2022-10-16T11:59:15;21.40;;;8.50;;
57317;SDS011;43157;50.982;18.132;2022-10-16T12:02:28;15.10;;;8.20;;
57317;SDS011;43157;50.982;18.132;2022-10-16T12:05:12;15.30;;;8.20;;
57317;SDS011;43157;50.982;18.132;2022-10-16T12:07:46;15.50;;;7.30;;
57317;SDS011;43157;50.982;18.132;2022-10-16T12:10:24;14.20;;;7.50;;
57317;SDS011;43157;50.982;18.132;2022-10-16T12:12:51;15.90;;;8.50;;
57317;SDS011;43157;50.982;18.132;2022-10-16T12:15:32;15.90;;;7.80;;
57317;SDS011;43157;50.982;18.132;2022-10-16T12:17:59;18.10;;;8.10;;
57317;SDS011;43157;50.982;18.132;2022-10-16T12:20:29;18.10;;;8.50;;
57317;SDS011;43157;50.982;18.132;2022-10-16T12:23:00;18.70;;;8.70;;
57317;SDS011;43157;50.982;18.132;2022-10-16T12:30:32;16.10;;;8.30;;
57317;SDS011;43157;50.982;18.132;2022-10-16T12:33:00;17.30;;;9.10;;
57317;SDS011;43157;50.982;18.132;2022-10-16T12:35:44;16.80;;;8.40;;
57317;SDS011;43157;50.982;18.132;2022-10-16T12:38:17;15.20;;;8.00;;
57317;SDS011;43157;50.982;18.132;2022-10-16T12:40:44;17.50;;;8.30;;
57317;SDS011;43157;50.982;18.132;2022-10-16T12:46:04;16.10;;;8.50;;
57317;SDS011;43157;50.982;18.132;2022-10-16T12:48:33;17.70;;;9.30;;
57317;SDS011;43157;50.982;18.132;2022-10-16T12:51:09;14.70;;;8.20;;
57317;SDS011;43157;50.982;18.132;2022-10-16T12:53:57;19.60;;;8.80;;
57317;SDS011;43157;50.982;18.132;2022-10-16T13:09:46;16.90;;;8.20;;
57317;SDS011;43157;50.982;18.132;2022-10-16T13:15:38;15.10;;;7.60;;
57317;SDS011;43157;50.982;18.132;2022-10-16T13:18:11;15.20;;;8.00;;
57317;SDS011;43157;50.982;18.132;2022-10-16T13:23:25;14.60;;;7.70;;
57317;SDS011;43157;50.982;18.132;2022-10-16T13:26:23;15.70;;;8.00;;
57317;SDS011;43157;50.982;18.132;2022-10-16T13:28:52;15.50;;;7.80;;
57317;SDS011;43157;50.982;18.132;2022-10-16T13:31:21;12.60;;;6.50;;
57317;SDS011;43157;50.982;18.132;2022-10-16T13:33:50;17.70;;;7.60;;
57317;SDS011;43157;50.982;18.132;2022-10-16T13:36:21;16.30;;;7.50;;
57317;SDS011;43157;50.982;18.132;2022-10-16T13:38:48;14.80;;;7.70;;
57317;SDS011;43157;50.982;18.132;2022-10-16T13:41:18;19.50;;;8.10;;
57317;SDS011;43157;50.982;18.132;2022-10-16T13:43:45;16.10;;;7.70;;
57317;SDS011;43157;50.982;18.132;2022-10-16T13:46:13;15.50;;;7.80;;
57317;SDS011;43157;50.982;18.132;2022-10-16T13:48:40;15.20;;;7.10;;
57317;SDS011;43157;50.982;18.132;2022-10-16T13:51:14;18.10;;;7.40;;
57317;SDS011;43157;50.982;18.132;2022-10-16T13:53:41;15.00;;;8.30;;
57317;SDS011;43157;50.982;18.132;2022-10-16T13:56:10;14.00;;;7.80;;
57317;SDS011;43157;50.982;18.132;2022-10-16T13:58:37;15.70;;;7.40;;
57317;SDS011;43157;50.982;18.132;2022-10-16T14:01:03;16.10;;;7.60;;
57317;SDS011;43157;50.982;18.132;2022-10-16T14:03:31;15.30;;;7.40;;
57317;SDS011;43157;50.982;18.132;2022-10-16T14:05:59;12.80;;;6.80;;
57317;SDS011;43157;50.982;18.132;2022-10-16T14:08:26;12.60;;;6.40;;
57317;SDS011;43157;50.982;18.132;2022-10-16T14:10:59;16.00;;;6.80;;
57317;SDS011;43157;50.982;18.132;2022-10-16T14:13:30;12.90;;;6.20;;
57317;SDS011;43157;50.982;18.132;2022-10-16T14:15:58;14.40;;;6.40;;
57317;SDS011;43157;50.982;18.132;2022-10-16T14:18:46;13.50;;;6.90;;
57317;SDS011;43157;50.982;18.132;2022-10-16T14:21:16;14.30;;;6.20;;
57317;SDS011;43157;50.982;18.132;2022-10-16T14:23:42;12.00;;;6.10;;
57317;SDS011;43157;50.982;18.132;2022-10-16T14:28:34;15.70;;;7.40;;
57317;SDS011;43157;50.982;18.132;2022-10-16T14:31:02;17.10;;;8.00;;
57317;SDS011;43157;50.982;18.132;2022-10-16T14:33:42;13.80;;;7.70;;
57317;SDS011;43157;50.982;18.132;2022-10-16T14:38:39;15.40;;;7.50;;
57317;SDS011;43157;50.982;18.132;2022-10-16T14:41:12;16.00;;;7.70;;
57317;SDS011;43157;50.982;18.132;2022-10-16T14:46:14;14.60;;;7.80;;
57317;SDS011;43157;50.982;18.132;2022-10-16T14:48:45;15.60;;;8.20;;
57317;SDS011;43157;50.982;18.132;2022-10-16T14:51:13;14.90;;;8.30;;
57317;SDS011;43157;50.982;18.132;2022-10-16T14:53:40;15.70;;;8.30;;
57317;SDS011;43157;50.982;18.132;2022-10-16T14:56:06;16.60;;;7.90;;
57317;SDS011;43157;50.982;18.132;2022-10-16T14:58:33;15.10;;;8.90;;
57317;SDS011;43157;50.982;18.132;2022-10-16T15:01:00;16.80;;;9.10;;
57317;SDS011;43157;50.982;18.132;2022-10-16T15:03:25;16.00;;;8.40;;
57317;SDS011;43157;50.982;18.132;2022-10-16T15:05:51;18.70;;;8.40;;
57317;SDS011;43157;50.982;18.132;2022-10-16T15:08:16;19.70;;;10.00;;
57317;SDS011;43157;50.982;18.132;2022-10-16T15:10:43;18.20;;;9.90;;
57317;SDS011;43157;50.982;18.132;2022-10-16T15:13:12;21.50;;;11.80;;
57317;SDS011;43157;50.982;18.132;2022-10-16T15:15:41;24.10;;;14.90;;
57317;SDS011;43157;50.982;18.132;2022-10-16T15:18:11;20.50;;;11.20;;
57317;SDS011;43157;50.982;18.132;2022-10-16T15:20:38;22.10;;;11.40;;
57317;SDS011;43157;50.982;18.132;2022-10-16T15:23:06;21.20;;;10.70;;
57317;SDS011;43157;50.982;18.132;2022-10-16T15:28:11;23.90;;;12.60;;
57317;SDS011;43157;50.982;18.132;2022-10-16T15:30:40;22.50;;;13.60;;
57317;SDS011;43157;50.982;18.132;2022-10-16T15:33:10;22.10;;;13.40;;
57317;SDS011;43157;50.982;18.132;2022-10-16T15:35:39;27.10;;;14.00;;
57317;SDS011;43157;50.982;18.132;2022-10-16T15:38:04;23.10;;;12.10;;
57317;SDS011;43157;50.982;18.132;2022-10-16T15:40:30;21.80;;;11.90;;
57317;SDS011;43157;50.982;18.132;2022-10-16T15:42:55;23.60;;;13.80;;
57317;SDS011;43157;50.982;18.132;2022-10-16T15:45:21;25.30;;;14.40;;
57317;SDS011;43157;50.982;18.132;2022-10-16T15:47:47;29.40;;;15.40;;
57317;SDS011;43157;50.982;18.132;2022-10-16T15:50:13;23.80;;;13.40;;
57317;SDS011;43157;50.982;18.132;2022-10-16T15:52:40;26.90;;;16.10;;
57317;SDS011;43157;50.982;18.132;2022-10-16T15:55:09;23.30;;;14.10;;
57317;SDS011;43157;50.982;18.132;2022-10-16T15:57:37;29.30;;;16.80;;
57317;SDS011;43157;50.982;18.132;2022-10-16T16:00:05;29.40;;;14.60;;
57317;SDS011;43157;50.982;18.132;2022-10-16T16:02:33;27.60;;;16.20;;
57317;SDS011;43157;50.982;18.132;2022-10-16T16:04:59;34.20;;;20.20;;
57317;SDS011;43157;50.982;18.132;2022-10-16T16:07:24;31.30;;;18.60;;
57317;SDS011;43157;50.982;18.132;2022-10-16T16:09:50;30.70;;;18.80;;
57317;SDS011;43157;50.982;18.132;2022-10-16T16:12:15;43.20;;;26.20;;
57317;SDS011;43157;50.982;18.132;2022-10-16T16:14:42;30.50;;;17.80;;
57317;SDS011;43157;50.982;18.132;2022-10-16T16:17:11;26.80;;;14.60;;
57317;SDS011;43157;50.982;18.132;2022-10-16T16:19:37;29.20;;;16.30;;
57317;SDS011;43157;50.982;18.132;2022-10-16T16:22:02;28.70;;;18.00;;
57317;SDS011;43157;50.982;18.132;2022-10-16T16:24:28;27.00;;;15.20;;
57317;SDS011;43157;50.982;18.132;2022-10-16T16:26:54;28.90;;;15.90;;
57317;SDS011;43157;50.982;18.132;2022-10-16T16:29:19;24.70;;;13.40;;
57317;SDS011;43157;50.982;18.132;2022-10-16T16:31:45;26.10;;;14.50;;